sensor_id;sensor_type;location;lat;lon;timestamp;P1;durP1;ratioP1;P2;durP2;ratioP2
79712;SDS011;69206;51.420;5.400;2023-05-10T00:01:27;4.60;;;2.90;;
79712;SDS011;69206;51.420;5.400;2023-05-10T00:03:52;2.30;;;2.03;;
79712;SDS011;69206;51.420;5.400;2023-05-10T00:06:18;2.90;;;2.20;;
79712;SDS011;69206;51.420;5.400;2023-05-10T00:08:43;4.67;;;2.30;;
79712;SDS011;69206;51.420;5.400;2023-05-10T00:11:10;1.50;;;1.40;;
79712;SDS011;69206;51.420;5.400;2023-05-10T00:13:35;2.90;;;2.37;;
79712;SDS011;69206;51.420;5.400;2023-05-10T00:16:01;2.10;;;1.20;;
79712;SDS011;69206;51.420;5.400;2023-05-10T00:18:26;14.67;;;3.40;;
79712;SDS011;69206;51.420;5.400;2023-05-10T00:20:51;1.42;;;1.27;;
79712;SDS011;69206;51.420;5.400;2023-05-10T00:23:17;2.28;;;2.08;;
79712;SDS011;69206;51.420;5.400;2023-05-10T00:25:42;1.67;;;1.57;;
79712;SDS011;69206;51.420;5.400;2023-05-10T00:28:08;4.65;;;2.22;;
79712;SDS011;69206;51.420;5.400;2023-05-10T00:30:33;3.95;;;2.58;;
79712;SDS011;69206;51.420;5.400;2023-05-10T00:32:58;3.08;;;2.10;;
79712;SDS011;69206;51.420;5.400;2023-05-10T00:35:24;3.35;;;2.03;;
79712;SDS011;69206;51.420;5.400;2023-05-10T00:37:49;4.00;;;2.17;;
79712;SDS011;69206;51.420;5.400;2023-05-10T00:40:15;3.17;;;2.42;;
79712;SDS011;69206;51.420;5.400;2023-05-10T00:42:41;10.20;;;2.50;;
79712;SDS011;69206;51.420;5.400;2023-05-10T00:45:06;3.50;;;2.33;;
79712;SDS011;69206;51.420;5.400;2023-05-10T00:47:32;2.27;;;1.93;;
79712;SDS011;69206;51.420;5.400;2023-05-10T00:49:58;3.70;;;2.37;;
79712;SDS011;69206;51.420;5.400;2023-05-10T00:52:25;6.07;;;2.58;;
79712;SDS011;69206;51.420;5.400;2023-05-10T00:54:51;6.03;;;2.22;;
79712;SDS011;69206;51.420;5.400;2023-05-10T00:57:17;2.67;;;1.50;;
79712;SDS011;69206;51.420;5.400;2023-05-10T00:59:42;1.27;;;1.17;;
79712;SDS011;69206;51.420;5.400;2023-05-10T01:02:08;10.80;;;2.85;;
79712;SDS011;69206;51.420;5.400;2023-05-10T01:04:34;3.30;;;2.75;;
79712;SDS011;69206;51.420;5.400;2023-05-10T01:07:00;3.78;;;2.92;;
79712;SDS011;69206;51.420;5.400;2023-05-10T01:09:26;7.20;;;2.85;;
79712;SDS011;69206;51.420;5.400;2023-05-10T01:11:52;3.35;;;2.88;;
79712;SDS011;69206;51.420;5.400;2023-05-10T01:14:18;2.97;;;1.97;;
79712;SDS011;69206;51.420;5.400;2023-05-10T01:16:44;4.47;;;2.27;;
79712;SDS011;69206;51.420;5.400;2023-05-10T01:22:31;5.27;;;2.43;;
79712;SDS011;69206;51.420;5.400;2023-05-10T01:28:00;4.18;;;2.80;;
79712;SDS011;69206;51.420;5.400;2023-05-10T01:36:08;5.90;;;2.50;;
79712;SDS011;69206;51.420;5.400;2023-05-10T01:38:44;9.17;;;3.83;;
79712;SDS011;69206;51.420;5.400;2023-05-10T01:46:42;6.10;;;3.30;;
79712;SDS011;69206;51.420;5.400;2023-05-10T01:49:08;11.77;;;3.03;;
79712;SDS011;69206;51.420;5.400;2023-05-10T01:51:39;7.03;;;4.23;;
79712;SDS011;69206;51.420;5.400;2023-05-10T01:54:09;7.87;;;3.10;;
79712;SDS011;69206;51.420;5.400;2023-05-10T01:56:37;4.90;;;2.80;;
79712;SDS011;69206;51.420;5.400;2023-05-10T01:59:06;2.23;;;2.07;;
79712;SDS011;69206;51.420;5.400;2023-05-10T02:01:38;4.60;;;3.07;;
79712;SDS011;69206;51.420;5.400;2023-05-10T02:04:05;8.10;;;2.97;;
79712;SDS011;69206;51.420;5.400;2023-05-10T02:06:32;2.70;;;2.23;;
79712;SDS011;69206;51.420;5.400;2023-05-10T02:08:58;5.67;;;3.07;;
79712;SDS011;69206;51.420;5.400;2023-05-10T02:11:26;9.80;;;3.40;;
79712;SDS011;69206;51.420;5.400;2023-05-10T02:13:53;6.10;;;3.30;;
79712;SDS011;69206;51.420;5.400;2023-05-10T02:16:22;2.77;;;2.57;;
79712;SDS011;69206;51.420;5.400;2023-05-10T02:18:50;5.97;;;3.50;;
79712;SDS011;69206;51.420;5.400;2023-05-10T02:21:18;3.07;;;2.83;;
79712;SDS011;69206;51.420;5.400;2023-05-10T02:23:45;18.90;;;4.87;;
79712;SDS011;69206;51.420;5.400;2023-05-10T02:26:13;8.17;;;4.63;;
79712;SDS011;69206;51.420;5.400;2023-05-10T02:28:40;15.10;;;7.27;;
79712;SDS011;69206;51.420;5.400;2023-05-10T02:31:07;8.17;;;4.03;;
79712;SDS011;69206;51.420;5.400;2023-05-10T02:33:34;2.70;;;2.17;;
79712;SDS011;69206;51.420;5.400;2023-05-10T02:36:01;6.67;;;4.80;;
79712;SDS011;69206;51.420;5.400;2023-05-10T02:38:27;7.70;;;4.50;;
79712;SDS011;69206;51.420;5.400;2023-05-10T02:40:54;16.27;;;3.57;;
79712;SDS011;69206;51.420;5.400;2023-05-10T02:43:22;13.03;;;3.63;;
79712;SDS011;69206;51.420;5.400;2023-05-10T02:45:48;3.23;;;2.93;;
79712;SDS011;69206;51.420;5.400;2023-05-10T02:48:13;11.40;;;5.10;;
79712;SDS011;69206;51.420;5.400;2023-05-10T02:50:39;6.90;;;3.50;;
79712;SDS011;69206;51.420;5.400;2023-05-10T02:53:09;9.83;;;4.07;;
79712;SDS011;69206;51.420;5.400;2023-05-10T02:55:37;8.03;;;3.73;;
79712;SDS011;69206;51.420;5.400;2023-05-10T02:58:05;46.20;;;5.37;;
79712;SDS011;69206;51.420;5.400;2023-05-10T03:00:31;2.87;;;2.57;;
79712;SDS011;69206;51.420;5.400;2023-05-10T03:02:57;3.07;;;2.77;;
79712;SDS011;69206;51.420;5.400;2023-05-10T03:05:22;7.33;;;4.50;;
79712;SDS011;69206;51.420;5.400;2023-05-10T03:07:48;2.17;;;1.97;;
79712;SDS011;69206;51.420;5.400;2023-05-10T03:10:14;4.33;;;3.83;;
79712;SDS011;69206;51.420;5.400;2023-05-10T03:15:47;51.33;;;5.10;;
79712;SDS011;69206;51.420;5.400;2023-05-10T03:19:05;7.00;;;3.63;;
79712;SDS011;69206;51.420;5.400;2023-05-10T03:21:11;9.53;;;4.57;;
79712;SDS011;69206;51.420;5.400;2023-05-10T03:23:41;6.47;;;3.50;;
79712;SDS011;69206;51.420;5.400;2023-05-10T03:26:09;4.80;;;3.30;;
79712;SDS011;69206;51.420;5.400;2023-05-10T03:28:40;6.03;;;3.33;;
79712;SDS011;69206;51.420;5.400;2023-05-10T03:31:06;3.27;;;2.50;;
79712;SDS011;69206;51.420;5.400;2023-05-10T03:33:32;3.93;;;3.47;;
79712;SDS011;69206;51.420;5.400;2023-05-10T03:35:58;8.80;;;3.73;;
79712;SDS011;69206;51.420;5.400;2023-05-10T03:38:23;8.37;;;3.50;;
79712;SDS011;69206;51.420;5.400;2023-05-10T03:40:49;9.93;;;4.17;;
79712;SDS011;69206;51.420;5.400;2023-05-10T03:43:14;7.23;;;4.40;;
79712;SDS011;69206;51.420;5.400;2023-05-10T03:45:40;11.47;;;3.20;;
79712;SDS011;69206;51.420;5.400;2023-05-10T03:48:05;4.83;;;3.77;;
79712;SDS011;69206;51.420;5.400;2023-05-10T03:50:31;5.47;;;2.87;;
79712;SDS011;69206;51.420;5.400;2023-05-10T03:52:56;10.80;;;4.73;;
79712;SDS011;69206;51.420;5.400;2023-05-10T03:55:22;3.10;;;2.80;;
79712;SDS011;69206;51.420;5.400;2023-05-10T03:57:48;5.67;;;3.90;;
79712;SDS011;69206;51.420;5.400;2023-05-10T04:00:14;3.77;;;2.43;;
79712;SDS011;69206;51.420;5.400;2023-05-10T04:02:40;8.10;;;4.13;;
79712;SDS011;69206;51.420;5.400;2023-05-10T04:05:06;9.03;;;3.70;;
79712;SDS011;69206;51.420;5.400;2023-05-10T04:07:31;7.37;;;5.20;;
79712;SDS011;69206;51.420;5.400;2023-05-10T04:09:57;6.40;;;3.13;;
79712;SDS011;69206;51.420;5.400;2023-05-10T04:12:22;5.17;;;3.70;;
79712;SDS011;69206;51.420;5.400;2023-05-10T04:14:48;9.57;;;5.07;;
79712;SDS011;69206;51.420;5.400;2023-05-10T04:17:13;7.73;;;5.00;;
79712;SDS011;69206;51.420;5.400;2023-05-10T04:19:38;4.87;;;2.47;;
79712;SDS011;69206;51.420;5.400;2023-05-10T04:22:04;12.40;;;4.63;;
79712;SDS011;69206;51.420;5.400;2023-05-10T04:24:29;11.47;;;4.67;;
79712;SDS011;69206;51.420;5.400;2023-05-10T04:26:54;9.67;;;5.53;;
79712;SDS011;69206;51.420;5.400;2023-05-10T04:29:20;5.70;;;3.90;;
79712;SDS011;69206;51.420;5.400;2023-05-10T04:31:46;9.90;;;6.47;;
79712;SDS011;69206;51.420;5.400;2023-05-10T04:34:11;6.33;;;3.80;;
79712;SDS011;69206;51.420;5.400;2023-05-10T04:36:36;4.27;;;3.87;;
79712;SDS011;69206;51.420;5.400;2023-05-10T04:39:02;16.83;;;7.57;;
79712;SDS011;69206;51.420;5.400;2023-05-10T04:41:29;20.10;;;6.87;;
79712;SDS011;69206;51.420;5.400;2023-05-10T04:43:54;18.80;;;4.03;;
79712;SDS011;69206;51.420;5.400;2023-05-10T04:46:20;7.03;;;4.53;;
79712;SDS011;69206;51.420;5.400;2023-05-10T04:48:46;5.80;;;5.20;;
79712;SDS011;69206;51.420;5.400;2023-05-10T04:51:11;6.40;;;4.70;;
79712;SDS011;69206;51.420;5.400;2023-05-10T04:53:37;10.37;;;3.63;;
79712;SDS011;69206;51.420;5.400;2023-05-10T04:56:02;18.67;;;4.93;;
79712;SDS011;69206;51.420;5.400;2023-05-10T04:58:28;11.10;;;5.23;;
79712;SDS011;69206;51.420;5.400;2023-05-10T05:00:53;7.90;;;3.97;;
79712;SDS011;69206;51.420;5.400;2023-05-10T05:03:19;6.80;;;3.50;;
79712;SDS011;69206;51.420;5.400;2023-05-10T05:05:44;9.87;;;3.50;;
79712;SDS011;69206;51.420;5.400;2023-05-10T05:08:09;5.33;;;4.13;;
79712;SDS011;69206;51.420;5.400;2023-05-10T05:10:35;6.00;;;2.43;;
79712;SDS011;69206;51.420;5.400;2023-05-10T05:13:00;2.53;;;2.33;;
79712;SDS011;69206;51.420;5.400;2023-05-10T05:15:26;5.43;;;3.37;;
79712;SDS011;69206;51.420;5.400;2023-05-10T05:17:51;13.67;;;4.33;;
79712;SDS011;69206;51.420;5.400;2023-05-10T05:20:17;5.93;;;3.47;;
79712;SDS011;69206;51.420;5.400;2023-05-10T05:22:44;6.50;;;3.57;;
79712;SDS011;69206;51.420;5.400;2023-05-10T05:25:10;2.20;;;2.10;;
79712;SDS011;69206;51.420;5.400;2023-05-10T05:27:37;4.47;;;2.50;;
79712;SDS011;69206;51.420;5.400;2023-05-10T05:30:02;18.77;;;3.27;;
79712;SDS011;69206;51.420;5.400;2023-05-10T05:32:28;3.80;;;2.43;;
79712;SDS011;69206;51.420;5.400;2023-05-10T05:34:54;4.37;;;3.97;;
79712;SDS011;69206;51.420;5.400;2023-05-10T05:37:20;11.20;;;3.07;;
79712;SDS011;69206;51.420;5.400;2023-05-10T05:39:49;2.77;;;2.20;;
79712;SDS011;69206;51.420;5.400;2023-05-10T05:42:15;3.80;;;2.80;;
79712;SDS011;69206;51.420;5.400;2023-05-10T05:44:42;3.30;;;2.90;;
79712;SDS011;69206;51.420;5.400;2023-05-10T05:47:08;6.73;;;3.90;;
79712;SDS011;69206;51.420;5.400;2023-05-10T05:49:34;6.20;;;3.10;;
79712;SDS011;69206;51.420;5.400;2023-05-10T05:51:59;20.80;;;6.37;;
79712;SDS011;69206;51.420;5.400;2023-05-10T05:54:26;5.40;;;2.53;;
79712;SDS011;69206;51.420;5.400;2023-05-10T05:56:55;6.43;;;1.43;;
79712;SDS011;69206;51.420;5.400;2023-05-10T05:59:21;4.23;;;2.00;;
79712;SDS011;69206;51.420;5.400;2023-05-10T06:01:47;2.47;;;1.53;;
79712;SDS011;69206;51.420;5.400;2023-05-10T06:04:13;2.10;;;1.67;;
79712;SDS011;69206;51.420;5.400;2023-05-10T06:06:38;6.60;;;3.03;;
79712;SDS011;69206;51.420;5.400;2023-05-10T06:09:04;7.90;;;2.93;;
79712;SDS011;69206;51.420;5.400;2023-05-10T06:11:29;5.47;;;2.93;;
79712;SDS011;69206;51.420;5.400;2023-05-10T06:13:57;4.10;;;2.10;;
79712;SDS011;69206;51.420;5.400;2023-05-10T06:16:22;3.60;;;2.00;;
79712;SDS011;69206;51.420;5.400;2023-05-10T06:18:48;5.53;;;2.57;;
79712;SDS011;69206;51.420;5.400;2023-05-10T06:21:13;22.07;;;2.40;;
79712;SDS011;69206;51.420;5.400;2023-05-10T06:23:40;2.63;;;1.73;;
79712;SDS011;69206;51.420;5.400;2023-05-10T06:26:05;3.87;;;2.80;;
79712;SDS011;69206;51.420;5.400;2023-05-10T06:28:31;4.20;;;2.27;;
79712;SDS011;69206;51.420;5.400;2023-05-10T06:30:57;11.20;;;2.43;;
79712;SDS011;69206;51.420;5.400;2023-05-10T06:33:22;14.40;;;3.43;;
79712;SDS011;69206;51.420;5.400;2023-05-10T06:35:48;2.23;;;1.40;;
79712;SDS011;69206;51.420;5.400;2023-05-10T06:38:13;4.97;;;3.10;;
79712;SDS011;69206;51.420;5.400;2023-05-10T06:40:42;3.30;;;2.37;;
79712;SDS011;69206;51.420;5.400;2023-05-10T06:43:08;2.13;;;1.70;;
79712;SDS011;69206;51.420;5.400;2023-05-10T06:45:33;5.53;;;2.53;;
79712;SDS011;69206;51.420;5.400;2023-05-10T06:47:59;2.93;;;2.30;;
79712;SDS011;69206;51.420;5.400;2023-05-10T06:50:24;2.00;;;1.70;;
79712;SDS011;69206;51.420;5.400;2023-05-10T06:52:50;2.80;;;2.23;;
79712;SDS011;69206;51.420;5.400;2023-05-10T06:55:15;4.53;;;2.40;;
79712;SDS011;69206;51.420;5.400;2023-05-10T06:57:41;3.87;;;2.23;;
79712;SDS011;69206;51.420;5.400;2023-05-10T07:00:06;5.13;;;3.13;;
79712;SDS011;69206;51.420;5.400;2023-05-10T07:02:32;2.40;;;2.17;;
79712;SDS011;69206;51.420;5.400;2023-05-10T07:04:58;1.60;;;1.33;;
79712;SDS011;69206;51.420;5.400;2023-05-10T07:07:24;3.70;;;2.73;;
79712;SDS011;69206;51.420;5.400;2023-05-10T07:09:49;2.20;;;2.03;;
79712;SDS011;69206;51.420;5.400;2023-05-10T07:12:15;4.63;;;2.83;;
79712;SDS011;69206;51.420;5.400;2023-05-10T07:14:40;3.57;;;1.83;;
79712;SDS011;69206;51.420;5.400;2023-05-10T07:17:06;4.80;;;3.27;;
79712;SDS011;69206;51.420;5.400;2023-05-10T07:19:31;4.77;;;2.10;;
79712;SDS011;69206;51.420;5.400;2023-05-10T07:21:57;1.73;;;1.63;;
79712;SDS011;69206;51.420;5.400;2023-05-10T07:24:23;1.70;;;1.43;;
79712;SDS011;69206;51.420;5.400;2023-05-10T07:26:49;11.33;;;2.60;;
79712;SDS011;69206;51.420;5.400;2023-05-10T07:29:15;3.60;;;2.03;;
79712;SDS011;69206;51.420;5.400;2023-05-10T07:31:40;1.53;;;1.43;;
79712;SDS011;69206;51.420;5.400;2023-05-10T07:34:07;2.93;;;1.83;;
79712;SDS011;69206;51.420;5.400;2023-05-10T07:36:33;1.37;;;1.27;;
79712;SDS011;69206;51.420;5.400;2023-05-10T07:38:59;2.53;;;2.03;;
79712;SDS011;69206;51.420;5.400;2023-05-10T07:41:24;2.47;;;1.47;;
79712;SDS011;69206;51.420;5.400;2023-05-10T07:43:49;5.10;;;2.77;;
79712;SDS011;69206;51.420;5.400;2023-05-10T07:46:15;4.93;;;0.80;;
79712;SDS011;69206;51.420;5.400;2023-05-10T07:48:40;1.63;;;1.37;;
79712;SDS011;69206;51.420;5.400;2023-05-10T07:51:06;3.83;;;1.23;;
79712;SDS011;69206;51.420;5.400;2023-05-10T07:53:34;0.80;;;0.80;;
79712;SDS011;69206;51.420;5.400;2023-05-10T07:56:19;1.10;;;0.50;;
79712;SDS011;69206;51.420;5.400;2023-05-10T07:58:45;1.40;;;1.30;;
79712;SDS011;69206;51.420;5.400;2023-05-10T08:01:10;1.03;;;1.00;;
79712;SDS011;69206;51.420;5.400;2023-05-10T08:03:36;0.83;;;0.70;;
79712;SDS011;69206;51.420;5.400;2023-05-10T08:06:01;2.60;;;1.57;;
79712;SDS011;69206;51.420;5.400;2023-05-10T08:08:27;0.93;;;0.90;;
79712;SDS011;69206;51.420;5.400;2023-05-10T08:10:52;5.37;;;1.53;;
79712;SDS011;69206;51.420;5.400;2023-05-10T08:13:17;2.90;;;1.75;;
79712;SDS011;69206;51.420;5.400;2023-05-10T08:15:43;2.63;;;1.67;;
79712;SDS011;69206;51.420;5.400;2023-05-10T08:18:08;1.77;;;1.67;;
79712;SDS011;69206;51.420;5.400;2023-05-10T08:20:34;0.93;;;0.87;;
79712;SDS011;69206;51.420;5.400;2023-05-10T08:22:59;1.13;;;1.00;;
79712;SDS011;69206;51.420;5.400;2023-05-10T08:25:25;1.50;;;1.40;;
79712;SDS011;69206;51.420;5.400;2023-05-10T08:27:50;8.40;;;1.37;;
79712;SDS011;69206;51.420;5.400;2023-05-10T08:30:15;0.60;;;0.60;;
79712;SDS011;69206;51.420;5.400;2023-05-10T08:32:41;0.75;;;0.75;;
79712;SDS011;69206;51.420;5.400;2023-05-10T08:35:06;2.63;;;1.83;;
79712;SDS011;69206;51.420;5.400;2023-05-10T08:37:32;1.00;;;0.95;;
79712;SDS011;69206;51.420;5.400;2023-05-10T08:39:58;1.02;;;0.90;;
79712;SDS011;69206;51.420;5.400;2023-05-10T08:42:23;1.20;;;1.07;;
79712;SDS011;69206;51.420;5.400;2023-05-10T08:44:53;2.00;;;1.30;;
79712;SDS011;69206;51.420;5.400;2023-05-10T08:47:20;0.80;;;0.80;;
79712;SDS011;69206;51.420;5.400;2023-05-10T08:49:47;0.82;;;0.82;;
79712;SDS011;69206;51.420;5.400;2023-05-10T08:52:16;0.90;;;0.82;;
79712;SDS011;69206;51.420;5.400;2023-05-10T08:54:42;0.88;;;0.85;;
79712;SDS011;69206;51.420;5.400;2023-05-10T08:57:08;1.23;;;0.82;;
79712;SDS011;69206;51.420;5.400;2023-05-10T08:59:35;1.27;;;1.17;;
79712;SDS011;69206;51.420;5.400;2023-05-10T09:02:00;1.67;;;0.70;;
79712;SDS011;69206;51.420;5.400;2023-05-10T09:04:27;0.65;;;0.65;;
79712;SDS011;69206;51.420;5.400;2023-05-10T09:06:53;0.60;;;0.45;;
79712;SDS011;69206;51.420;5.400;2023-05-10T09:09:19;1.50;;;1.10;;
79712;SDS011;69206;51.420;5.400;2023-05-10T09:11:45;2.13;;;1.23;;
79712;SDS011;69206;51.420;5.400;2023-05-10T09:14:11;1.75;;;0.90;;
79712;SDS011;69206;51.420;5.400;2023-05-10T09:16:37;3.22;;;0.90;;
79712;SDS011;69206;51.420;5.400;2023-05-10T09:19:03;1.27;;;1.17;;
79712;SDS011;69206;51.420;5.400;2023-05-10T09:21:29;1.02;;;0.90;;
79712;SDS011;69206;51.420;5.400;2023-05-10T09:23:56;1.13;;;0.98;;
79712;SDS011;69206;51.420;5.400;2023-05-10T09:26:24;0.60;;;0.60;;
79712;SDS011;69206;51.420;5.400;2023-05-10T09:28:53;1.35;;;0.80;;
79712;SDS011;69206;51.420;5.400;2023-05-10T09:31:20;3.70;;;1.95;;
79712;SDS011;69206;51.420;5.400;2023-05-10T09:33:46;2.20;;;1.23;;
79712;SDS011;69206;51.420;5.400;2023-05-10T09:36:13;2.72;;;1.35;;
79712;SDS011;69206;51.420;5.400;2023-05-10T09:38:51;1.17;;;0.98;;
79712;SDS011;69206;51.420;5.400;2023-05-10T09:41:21;2.83;;;1.50;;
79712;SDS011;69206;51.420;5.400;2023-05-10T09:43:48;1.33;;;1.10;;
79712;SDS011;69206;51.420;5.400;2023-05-10T09:46:14;1.45;;;1.15;;
79712;SDS011;69206;51.420;5.400;2023-05-10T09:48:41;0.60;;;0.60;;
79712;SDS011;69206;51.420;5.400;2023-05-10T09:51:08;1.17;;;1.10;;
79712;SDS011;69206;51.420;5.400;2023-05-10T09:53:34;2.30;;;1.02;;
79712;SDS011;69206;51.420;5.400;2023-05-10T09:55:59;0.60;;;0.60;;
79712;SDS011;69206;51.420;5.400;2023-05-10T09:58:25;1.25;;;1.15;;
79712;SDS011;69206;51.420;5.400;2023-05-10T10:00:50;0.90;;;0.73;;
79712;SDS011;69206;51.420;5.400;2023-05-10T10:03:18;1.10;;;0.93;;
79712;SDS011;69206;51.420;5.400;2023-05-10T10:05:47;2.08;;;0.93;;
79712;SDS011;69206;51.420;5.400;2023-05-10T10:08:14;0.98;;;0.93;;
79712;SDS011;69206;51.420;5.400;2023-05-10T10:10:40;0.57;;;0.47;;
79712;SDS011;69206;51.420;5.400;2023-05-10T10:13:06;0.40;;;0.40;;
79712;SDS011;69206;51.420;5.400;2023-05-10T10:15:33;0.10;;;0.10;;
79712;SDS011;69206;51.420;5.400;2023-05-10T10:17:59;0.25;;;0.25;;
79712;SDS011;69206;51.420;5.400;2023-05-10T10:20:25;0.43;;;0.43;;
79712;SDS011;69206;51.420;5.400;2023-05-10T10:22:51;0.47;;;0.32;;
79712;SDS011;69206;51.420;5.400;2023-05-10T10:25:17;0.57;;;0.57;;
79712;SDS011;69206;51.420;5.400;2023-05-10T10:32:59;0.30;;;0.30;;
79712;SDS011;69206;51.420;5.400;2023-05-10T10:35:35;1.17;;;0.95;;
79712;SDS011;69206;51.420;5.400;2023-05-10T10:38:01;1.85;;;0.98;;
79712;SDS011;69206;51.420;5.400;2023-05-10T10:42:55;1.08;;;1.02;;
79712;SDS011;69206;51.420;5.400;2023-05-10T10:45:21;1.00;;;0.90;;
79712;SDS011;69206;51.420;5.400;2023-05-10T10:47:48;1.23;;;1.13;;
79712;SDS011;69206;51.420;5.400;2023-05-10T10:50:14;0.55;;;0.55;;
79712;SDS011;69206;51.420;5.400;2023-05-10T10:52:44;5.15;;;2.38;;
79712;SDS011;69206;51.420;5.400;2023-05-10T11:00:32;1.55;;;1.45;;
79712;SDS011;69206;51.420;5.400;2023-05-10T11:03:05;5.88;;;1.52;;
79712;SDS011;69206;51.420;5.400;2023-05-10T11:05:41;1.30;;;1.30;;
79712;SDS011;69206;51.420;5.400;2023-05-10T11:11:03;11.75;;;1.92;;
79712;SDS011;69206;51.420;5.400;2023-05-10T11:13:30;1.40;;;1.35;;
79712;SDS011;69206;51.420;5.400;2023-05-10T11:18:39;1.80;;;1.38;;
79712;SDS011;69206;51.420;5.400;2023-05-10T11:21:05;1.60;;;1.35;;
79712;SDS011;69206;51.420;5.400;2023-05-10T11:23:54;3.15;;;1.77;;
79712;SDS011;69206;51.420;5.400;2023-05-10T11:26:21;5.78;;;1.58;;
79712;SDS011;69206;51.420;5.400;2023-05-10T11:28:51;1.85;;;1.13;;
79712;SDS011;69206;51.420;5.400;2023-05-10T11:31:19;2.38;;;1.55;;
79712;SDS011;69206;51.420;5.400;2023-05-10T11:33:45;1.08;;;1.08;;
79712;SDS011;69206;51.420;5.400;2023-05-10T11:36:16;2.00;;;1.75;;
79712;SDS011;69206;51.420;5.400;2023-05-10T11:38:42;3.00;;;1.80;;
79712;SDS011;69206;51.420;5.400;2023-05-10T11:41:09;1.77;;;1.20;;
79712;SDS011;69206;51.420;5.400;2023-05-10T11:43:41;2.03;;;1.92;;
79712;SDS011;69206;51.420;5.400;2023-05-10T11:46:07;2.03;;;1.63;;
79712;SDS011;69206;51.420;5.400;2023-05-10T11:48:35;4.75;;;2.15;;
79712;SDS011;69206;51.420;5.400;2023-05-10T11:51:03;2.30;;;1.58;;
79712;SDS011;69206;51.420;5.400;2023-05-10T11:53:32;4.25;;;1.90;;
79712;SDS011;69206;51.420;5.400;2023-05-10T11:56:08;1.35;;;0.95;;
79712;SDS011;69206;51.420;5.400;2023-05-10T11:58:35;1.13;;;1.02;;
79712;SDS011;69206;51.420;5.400;2023-05-10T12:01:02;1.75;;;1.63;;
79712;SDS011;69206;51.420;5.400;2023-05-10T12:03:29;2.55;;;1.52;;
79712;SDS011;69206;51.420;5.400;2023-05-10T12:05:55;2.30;;;1.75;;
79712;SDS011;69206;51.420;5.400;2023-05-10T12:08:22;2.38;;;1.20;;
79712;SDS011;69206;51.420;5.400;2023-05-10T12:10:51;1.95;;;1.75;;
79712;SDS011;69206;51.420;5.400;2023-05-10T12:13:19;1.65;;;1.55;;
79712;SDS011;69206;51.420;5.400;2023-05-10T12:15:46;2.55;;;1.90;;
79712;SDS011;69206;51.420;5.400;2023-05-10T12:18:12;4.20;;;1.88;;
79712;SDS011;69206;51.420;5.400;2023-05-10T12:20:38;1.02;;;1.02;;
79712;SDS011;69206;51.420;5.400;2023-05-10T12:23:04;7.28;;;1.20;;
79712;SDS011;69206;51.420;5.400;2023-05-10T12:25:31;1.67;;;1.58;;
79712;SDS011;69206;51.420;5.400;2023-05-10T12:27:58;2.03;;;1.50;;
79712;SDS011;69206;51.420;5.400;2023-05-10T12:30:27;5.22;;;1.75;;
79712;SDS011;69206;51.420;5.400;2023-05-10T12:32:59;0.52;;;0.52;;
79712;SDS011;69206;51.420;5.400;2023-05-10T12:35:26;1.52;;;0.77;;
79712;SDS011;69206;51.420;5.400;2023-05-10T12:37:55;1.95;;;1.23;;
79712;SDS011;69206;51.420;5.400;2023-05-10T12:40:20;0.57;;;0.57;;
79712;SDS011;69206;51.420;5.400;2023-05-10T12:42:45;1.08;;;0.77;;
79712;SDS011;69206;51.420;5.400;2023-05-10T12:45:11;0.38;;;0.38;;
79712;SDS011;69206;51.420;5.400;2023-05-10T12:47:37;1.48;;;0.73;;
79712;SDS011;69206;51.420;5.400;2023-05-10T12:50:03;0.35;;;0.30;;
79712;SDS011;69206;51.420;5.400;2023-05-10T12:52:29;14.30;;;10.32;;
79712;SDS011;69206;51.420;5.400;2023-05-10T12:54:57;14.35;;;11.40;;
79712;SDS011;69206;51.420;5.400;2023-05-10T12:57:22;17.25;;;12.10;;
79712;SDS011;69206;51.420;5.400;2023-05-10T12:59:48;15.60;;;12.05;;
79712;SDS011;69206;51.420;5.400;2023-05-10T13:02:14;18.50;;;12.38;;
79712;SDS011;69206;51.420;5.400;2023-05-10T13:04:40;18.80;;;14.15;;
79712;SDS011;69206;51.420;5.400;2023-05-10T13:07:06;17.80;;;13.90;;
79712;SDS011;69206;51.420;5.400;2023-05-10T13:09:32;20.33;;;14.98;;
79712;SDS011;69206;51.420;5.400;2023-05-10T13:11:58;24.48;;;15.48;;
79712;SDS011;69206;51.420;5.400;2023-05-10T13:14:23;24.25;;;15.82;;
79712;SDS011;69206;51.420;5.400;2023-05-10T13:16:49;26.02;;;16.95;;
79712;SDS011;69206;51.420;5.400;2023-05-10T13:19:16;24.45;;;18.27;;
79712;SDS011;69206;51.420;5.400;2023-05-10T13:21:42;31.90;;;19.70;;
79712;SDS011;69206;51.420;5.400;2023-05-10T13:24:09;34.90;;;20.48;;
79712;SDS011;69206;51.420;5.400;2023-05-10T13:26:35;32.83;;;21.15;;
79712;SDS011;69206;51.420;5.400;2023-05-10T13:29:01;35.47;;;22.27;;
79712;SDS011;69206;51.420;5.400;2023-05-10T13:31:27;39.83;;;22.38;;
79712;SDS011;69206;51.420;5.400;2023-05-10T13:33:52;37.60;;;23.05;;
79712;SDS011;69206;51.420;5.400;2023-05-10T13:36:18;40.50;;;22.80;;
79712;SDS011;69206;51.420;5.400;2023-05-10T13:38:43;39.83;;;23.87;;
79712;SDS011;69206;51.420;5.400;2023-05-10T13:41:09;39.00;;;22.40;;
79712;SDS011;69206;51.420;5.400;2023-05-10T13:43:35;33.75;;;19.02;;
79712;SDS011;69206;51.420;5.400;2023-05-10T13:46:01;25.80;;;15.20;;
79712;SDS011;69206;51.420;5.400;2023-05-10T13:48:26;29.93;;;14.47;;
79712;SDS011;69206;51.420;5.400;2023-05-10T13:50:52;26.27;;;14.27;;
79712;SDS011;69206;51.420;5.400;2023-05-10T13:53:17;26.90;;;14.33;;
79712;SDS011;69206;51.420;5.400;2023-05-10T13:55:43;23.23;;;13.77;;
79712;SDS011;69206;51.420;5.400;2023-05-10T13:58:08;31.30;;;15.20;;
79712;SDS011;69206;51.420;5.400;2023-05-10T14:00:34;24.90;;;14.20;;
79712;SDS011;69206;51.420;5.400;2023-05-10T14:02:59;28.33;;;15.67;;
79712;SDS011;69206;51.420;5.400;2023-05-10T14:05:24;24.67;;;14.10;;
79712;SDS011;69206;51.420;5.400;2023-05-10T14:07:50;26.13;;;14.33;;
79712;SDS011;69206;51.420;5.400;2023-05-10T14:10:16;21.50;;;14.23;;
79712;SDS011;69206;51.420;5.400;2023-05-10T14:12:41;22.23;;;13.23;;
79712;SDS011;69206;51.420;5.400;2023-05-10T14:15:07;23.50;;;13.57;;
79712;SDS011;69206;51.420;5.400;2023-05-10T14:17:32;16.03;;;10.70;;
79712;SDS011;69206;51.420;5.400;2023-05-10T14:19:58;20.70;;;11.00;;
79712;SDS011;69206;51.420;5.400;2023-05-10T14:22:23;20.52;;;9.50;;
79712;SDS011;69206;51.420;5.400;2023-05-10T14:24:49;21.95;;;9.85;;
79712;SDS011;69206;51.420;5.400;2023-05-10T14:27:15;19.27;;;9.60;;
79712;SDS011;69206;51.420;5.400;2023-05-10T14:29:41;16.63;;;9.13;;
79712;SDS011;69206;51.420;5.400;2023-05-10T14:32:07;16.77;;;8.33;;
79712;SDS011;69206;51.420;5.400;2023-05-10T14:34:32;18.00;;;8.67;;
79712;SDS011;69206;51.420;5.400;2023-05-10T14:36:58;12.87;;;7.73;;
79712;SDS011;69206;51.420;5.400;2023-05-10T14:39:24;10.73;;;7.60;;
79712;SDS011;69206;51.420;5.400;2023-05-10T14:41:49;14.05;;;6.68;;
79712;SDS011;69206;51.420;5.400;2023-05-10T14:44:16;10.87;;;6.73;;
79712;SDS011;69206;51.420;5.400;2023-05-10T14:46:41;12.97;;;7.43;;
79712;SDS011;69206;51.420;5.400;2023-05-10T14:49:07;16.00;;;8.38;;
79712;SDS011;69206;51.420;5.400;2023-05-10T14:51:32;30.73;;;10.30;;
79712;SDS011;69206;51.420;5.400;2023-05-10T14:53:58;26.70;;;11.20;;
79712;SDS011;69206;51.420;5.400;2023-05-10T14:56:23;29.87;;;12.17;;
79712;SDS011;69206;51.420;5.400;2023-05-10T14:58:49;26.63;;;13.02;;
79712;SDS011;69206;51.420;5.400;2023-05-10T15:01:15;29.45;;;12.38;;
79712;SDS011;69206;51.420;5.400;2023-05-10T15:03:40;29.20;;;13.95;;
79712;SDS011;69206;51.420;5.400;2023-05-10T15:06:05;28.45;;;13.20;;
79712;SDS011;69206;51.420;5.400;2023-05-10T15:08:32;26.03;;;13.60;;
79712;SDS011;69206;51.420;5.400;2023-05-10T15:10:58;24.77;;;13.88;;
79712;SDS011;69206;51.420;5.400;2023-05-10T15:13:23;29.60;;;13.70;;
79712;SDS011;69206;51.420;5.400;2023-05-10T15:15:49;25.10;;;14.43;;
79712;SDS011;69206;51.420;5.400;2023-05-10T15:18:15;42.43;;;13.77;;